createdAt,value
2018-12-31T00:01:08.662Z,8.10
2018-12-31T00:03:36.362Z,8.20
2018-12-31T00:06:03.732Z,8.30
2018-12-31T00:08:31.360Z,8.30
2018-12-31T00:10:58.810Z,8.20
2018-12-31T00:13:26.205Z,8.20
2018-12-31T00:15:53.631Z,8.30
2018-12-31T00:18:21.366Z,8.40
2018-12-31T00:20:49.075Z,8.10
2018-12-31T00:23:16.486Z,7.90
2018-12-31T00:25:44.179Z,7.90
2018-12-31T00:28:11.538Z,8.10
2018-12-31T00:30:38.936Z,8.20
2018-12-31T00:33:06.342Z,8.10
2018-12-31T00:35:33.693Z,7.80
2018-12-31T00:38:01.093Z,7.90
2018-12-31T00:40:28.418Z,7.90
2018-12-31T00:42:59.089Z,7.80
2018-12-31T00:45:25.225Z,8.00
2018-12-31T00:47:52.559Z,8.00
2018-12-31T00:50:19.869Z,8.20
2018-12-31T00:52:47.283Z,8.20
2018-12-31T00:55:14.654Z,8.30
2018-12-31T00:57:42.257Z,8.40
2018-12-31T01:00:09.633Z,8.00
2018-12-31T01:02:36.923Z,7.90
2018-12-31T01:05:04.367Z,8.10
2018-12-31T01:07:31.735Z,8.30
2018-12-31T01:09:59.169Z,8.10
2018-12-31T01:12:26.526Z,7.80
2018-12-31T01:14:54.016Z,7.80
2018-12-31T01:17:21.589Z,7.80
2018-12-31T01:19:48.914Z,7.60
2018-12-31T01:22:16.546Z,7.50
2018-12-31T01:24:43.958Z,7.80
2018-12-31T01:27:11.232Z,7.70
2018-12-31T01:29:38.538Z,7.60
2018-12-31T01:32:05.965Z,7.70
2018-12-31T01:34:33.401Z,7.90
2018-12-31T01:37:00.733Z,7.70
2018-12-31T01:39:28.148Z,7.90
2018-12-31T01:41:55.533Z,8.00
2018-12-31T01:44:22.821Z,8.20
2018-12-31T01:46:50.247Z,8.10
2018-12-31T01:49:17.633Z,8.20
2018-12-31T01:51:45.059Z,7.90
2018-12-31T01:54:12.371Z,7.80
2018-12-31T01:56:39.793Z,7.50
2018-12-31T01:59:07.208Z,7.40
2018-12-31T02:01:34.623Z,7.50
2018-12-31T02:04:01.981Z,7.50
2018-12-31T02:06:29.303Z,7.30
2018-12-31T02:08:56.595Z,7.40
2018-12-31T02:11:23.988Z,7.20
2018-12-31T02:13:51.686Z,7.20
2018-12-31T02:16:18.989Z,7.40
2018-12-31T02:18:46.323Z,7.00
2018-12-31T02:21:13.724Z,7.00
2018-12-31T02:23:41.001Z,7.10
2018-12-31T02:26:08.319Z,6.80
2018-12-31T02:28:35.623Z,6.70
2018-12-31T02:31:02.963Z,6.90
2018-12-31T02:33:30.339Z,7.00
2018-12-31T02:35:57.732Z,7.00
2018-12-31T02:38:25.025Z,7.00
2018-12-31T02:40:52.296Z,7.00
2018-12-31T02:43:19.679Z,7.30
2018-12-31T02:45:47.075Z,7.00
2018-12-31T02:48:14.381Z,7.10
2018-12-31T02:50:41.672Z,7.10
2018-12-31T02:53:09.236Z,7.20
2018-12-31T02:55:36.533Z,7.30
2018-12-31T02:58:03.986Z,7.10
2018-12-31T03:00:31.603Z,7.10
2018-12-31T03:02:59.010Z,7.10
2018-12-31T03:05:26.455Z,7.20
2018-12-31T03:07:53.782Z,7.40
2018-12-31T03:10:21.219Z,7.50
2018-12-31T03:12:48.655Z,7.30
2018-12-31T03:15:16.030Z,7.20
2018-12-31T03:17:43.329Z,6.90
2018-12-31T03:20:10.614Z,6.70
2018-12-31T03:22:37.937Z,6.70
2018-12-31T03:25:05.335Z,6.90
2018-12-31T03:27:32.724Z,7.00
2018-12-31T03:30:00.294Z,6.40
2018-12-31T03:32:27.727Z,6.50
2018-12-31T03:34:55.145Z,6.30
2018-12-31T03:37:22.731Z,6.30
2018-12-31T03:39:50.126Z,6.30
2018-12-31T03:42:17.424Z,6.60
2018-12-31T03:44:44.841Z,6.80
2018-12-31T03:47:12.370Z,7.10
2018-12-31T03:49:39.909Z,7.20
2018-12-31T03:52:07.221Z,7.40
2018-12-31T03:54:34.633Z,7.10
2018-12-31T03:57:02.014Z,6.80
2018-12-31T03:59:29.292Z,6.60
2018-12-31T04:01:56.566Z,6.30
2018-12-31T04:04:23.972Z,6.70
2018-12-31T04:06:51.365Z,6.80
2018-12-31T04:09:18.773Z,6.60
2018-12-31T04:11:46.176Z,6.60
2018-12-31T04:14:13.552Z,6.40
2018-12-31T04:16:41.126Z,6.40
2018-12-31T04:19:08.442Z,6.70
2018-12-31T04:21:35.810Z,6.80
2018-12-31T04:24:03.111Z,7.10
2018-12-31T04:26:30.507Z,7.10
2018-12-31T04:28:57.930Z,7.40
2018-12-31T04:31:25.214Z,7.50
2018-12-31T04:33:52.490Z,7.20
2018-12-31T04:36:19.822Z,7.20
2018-12-31T04:38:47.100Z,6.70
2018-12-31T04:41:14.406Z,6.90
2018-12-31T04:43:41.774Z,7.10
2018-12-31T04:46:09.090Z,7.20
2018-12-31T04:48:36.400Z,7.20
2018-12-31T04:51:03.903Z,7.30
2018-12-31T04:53:31.200Z,7.50
2018-12-31T04:55:58.616Z,7.70
2018-12-31T04:58:25.898Z,7.60
2018-12-31T05:00:53.198Z,7.80
2018-12-31T05:03:20.474Z,7.80
2018-12-31T05:05:47.864Z,8.00
2018-12-31T05:08:15.134Z,8.00
2018-12-31T05:10:42.452Z,8.00
2018-12-31T05:13:09.824Z,7.90
2018-12-31T05:15:37.203Z,8.00
2018-12-31T05:18:04.487Z,8.00
2018-12-31T05:20:31.903Z,7.90
2018-12-31T05:22:59.255Z,7.90
2018-12-31T05:25:26.564Z,7.90
2018-12-31T05:27:53.989Z,7.80
2018-12-31T05:30:21.365Z,7.80
2018-12-31T05:32:48.767Z,8.10
2018-12-31T05:35:16.147Z,8.10
2018-12-31T05:37:43.427Z,7.90
2018-12-31T05:40:10.827Z,7.60
2018-12-31T05:42:38.134Z,7.40
2018-12-31T05:45:05.576Z,7.50
2018-12-31T05:47:33.291Z,7.30
2018-12-31T05:50:00.689Z,7.10
2018-12-31T05:52:27.977Z,7.40
2018-12-31T05:54:55.256Z,7.40
2018-12-31T05:57:22.561Z,7.20
2018-12-31T05:59:50.150Z,7.40
2018-12-31T06:02:17.479Z,7.40
2018-12-31T06:04:44.743Z,7.30
2018-12-31T06:07:12.042Z,7.10
2018-12-31T06:09:39.328Z,6.90
2018-12-31T06:12:06.697Z,6.80
2018-12-31T06:14:34.023Z,7.00
2018-12-31T06:17:01.428Z,6.70
2018-12-31T06:19:29.015Z,6.60
2018-12-31T06:21:56.324Z,6.40
2018-12-31T06:24:23.612Z,7.00
2018-12-31T06:26:51.197Z,6.90
2018-12-31T06:29:18.613Z,7.20
2018-12-31T06:31:45.919Z,7.20
2018-12-31T06:34:13.189Z,7.00
2018-12-31T06:36:40.482Z,6.90
2018-12-31T06:39:07.867Z,7.10
2018-12-31T06:41:35.289Z,7.30
2018-12-31T06:44:02.603Z,7.20
2018-12-31T06:46:29.976Z,7.20
2018-12-31T06:48:57.702Z,7.20
2018-12-31T06:51:25.086Z,7.10
2018-12-31T06:53:52.432Z,6.90
2018-12-31T06:56:19.745Z,7.00
2018-12-31T06:58:47.204Z,7.10
2018-12-31T07:01:14.555Z,7.20
2018-12-31T07:03:42.065Z,7.20
2018-12-31T07:06:09.477Z,7.20
2018-12-31T07:08:36.855Z,7.40
2018-12-31T07:11:04.369Z,7.40
2018-12-31T07:13:31.775Z,7.60
2018-12-31T07:15:59.056Z,7.80
2018-12-31T07:18:26.369Z,7.70
2018-12-31T07:20:53.671Z,7.70
2018-12-31T07:23:21.068Z,7.70
2018-12-31T07:25:48.453Z,7.40
2018-12-31T07:28:15.841Z,7.40
2018-12-31T07:30:43.250Z,7.40
2018-12-31T07:33:10.635Z,7.40
2018-12-31T07:35:38.039Z,7.00
2018-12-31T07:38:05.359Z,7.20
2018-12-31T07:40:32.780Z,7.30
2018-12-31T07:43:00.069Z,7.30
2018-12-31T07:45:27.418Z,7.30
2018-12-31T07:47:54.838Z,7.30
2018-12-31T07:50:22.186Z,7.20
2018-12-31T07:52:49.475Z,7.20
2018-12-31T07:55:16.872Z,7.20
2018-12-31T07:57:44.212Z,7.00
2018-12-31T08:00:11.635Z,6.70
2018-12-31T08:02:39.055Z,6.60
2018-12-31T08:05:06.461Z,7.10
2018-12-31T08:07:33.772Z,7.20
2018-12-31T08:10:01.467Z,7.50
2018-12-31T08:12:28.783Z,7.70
2018-12-31T08:14:56.153Z,7.40
2018-12-31T08:17:23.509Z,7.30
2018-12-31T08:19:50.879Z,7.50
2018-12-31T08:22:18.257Z,7.60
2018-12-31T08:24:45.657Z,7.40
2018-12-31T08:27:13.098Z,7.50
2018-12-31T08:29:40.814Z,7.60
2018-12-31T08:32:08.127Z,7.80
2018-12-31T08:34:35.417Z,8.20
2018-12-31T08:37:02.760Z,8.20
2018-12-31T08:39:30.143Z,8.00
2018-12-31T08:41:57.552Z,8.40
2018-12-31T08:44:24.963Z,8.50
2018-12-31T08:46:52.357Z,8.50
2018-12-31T08:49:20.042Z,8.50
2018-12-31T08:51:47.469Z,8.40
2018-12-31T08:54:14.905Z,8.30
2018-12-31T08:56:42.349Z,8.10
2018-12-31T08:59:09.766Z,8.00
2018-12-31T09:01:37.222Z,7.90
2018-12-31T09:04:04.625Z,8.20
2018-12-31T09:06:32.051Z,8.30
2018-12-31T09:08:59.355Z,8.20
2018-12-31T09:11:26.681Z,8.20
2018-12-31T09:13:54.400Z,8.20
2018-12-31T09:16:22.009Z,8.30
2018-12-31T09:18:49.399Z,8.00
2018-12-31T09:21:16.786Z,8.00
2018-12-31T09:23:44.118Z,8.20
2018-12-31T09:26:11.530Z,8.30
2018-12-31T09:28:39.285Z,8.20
2018-12-31T09:31:07.814Z,8.20
2018-12-31T09:33:35.287Z,8.30
2018-12-31T09:36:02.710Z,8.20
2018-12-31T09:38:30.163Z,7.90
2018-12-31T09:40:57.572Z,7.90
2018-12-31T09:43:24.882Z,7.90
2018-12-31T09:45:52.345Z,7.90
2018-12-31T09:48:19.792Z,8.00
2018-12-31T09:50:47.273Z,8.00
2018-12-31T09:53:14.738Z,8.20
2018-12-31T09:55:42.147Z,8.40
2018-12-31T09:58:09.573Z,8.70
2018-12-31T10:00:36.996Z,8.60
2018-12-31T10:03:04.310Z,8.50
2018-12-31T10:05:31.646Z,8.40
2018-12-31T10:07:59.078Z,8.50
2018-12-31T10:10:26.414Z,8.50
2018-12-31T10:12:53.827Z,8.50
2018-12-31T10:15:21.256Z,8.40
2018-12-31T10:17:48.680Z,8.50
2018-12-31T10:20:16.158Z,8.50
2018-12-31T10:22:43.558Z,8.50
2018-12-31T10:25:11.189Z,8.50
2018-12-31T10:27:38.640Z,8.60
2018-12-31T10:30:06.354Z,7.90
2018-12-31T10:32:33.738Z,7.70
2018-12-31T10:35:01.180Z,7.60
2018-12-31T10:37:28.634Z,7.50
2018-12-31T10:39:56.068Z,7.60
2018-12-31T10:42:23.480Z,8.00
2018-12-31T10:44:51.241Z,8.30
2018-12-31T10:47:18.649Z,8.50
2018-12-31T10:49:46.068Z,8.40
2018-12-31T10:52:13.815Z,8.20
2018-12-31T10:54:41.498Z,8.20
2018-12-31T10:57:09.122Z,8.70
2018-12-31T10:59:36.543Z,8.70
2018-12-31T11:02:04.393Z,8.70
2018-12-31T11:04:31.900Z,9.00
2018-12-31T11:06:59.264Z,9.10
2018-12-31T11:09:26.671Z,9.20
2018-12-31T11:11:54.025Z,8.90
2018-12-31T11:14:21.492Z,8.80
2018-12-31T11:16:48.896Z,8.70
2018-12-31T11:19:16.214Z,8.70
2018-12-31T11:21:43.665Z,8.40
2018-12-31T11:24:12.711Z,8.60
2018-12-31T11:26:40.241Z,8.70
2018-12-31T11:29:07.609Z,8.90
2018-12-31T11:31:34.952Z,8.90
2018-12-31T11:34:02.406Z,9.00
2018-12-31T11:36:29.801Z,9.10
2018-12-31T11:38:57.179Z,9.20
2018-12-31T11:41:24.907Z,9.20
2018-12-31T11:43:52.323Z,9.10
2018-12-31T11:46:19.848Z,8.80
2018-12-31T11:48:47.220Z,8.70
2018-12-31T11:51:14.550Z,8.70
2018-12-31T11:53:42.330Z,8.90
2018-12-31T11:56:09.762Z,9.00
2018-12-31T11:58:37.248Z,9.20
2018-12-31T12:01:04.686Z,9.30
2018-12-31T12:03:32.152Z,9.70
2018-12-31T12:05:59.794Z,9.60
2018-12-31T12:08:27.203Z,9.70
2018-12-31T12:10:54.654Z,9.80
2018-12-31T12:13:22.072Z,9.70
2018-12-31T12:15:49.516Z,9.50
2018-12-31T12:18:16.989Z,9.50
2018-12-31T12:20:44.780Z,9.40
2018-12-31T12:23:12.233Z,9.70
2018-12-31T12:25:40.069Z,9.90
2018-12-31T12:28:07.805Z,10.10
2018-12-31T12:30:35.226Z,10.20
2018-12-31T12:33:02.681Z,10.20
2018-12-31T12:35:30.094Z,9.90
2018-12-31T12:37:57.838Z,10.00
2018-12-31T12:40:25.287Z,10.20
2018-12-31T12:42:52.738Z,9.80
2018-12-31T12:45:20.430Z,9.90
2018-12-31T12:47:47.858Z,10.00
2018-12-31T12:50:15.239Z,10.20
2018-12-31T12:52:43.067Z,10.20
2018-12-31T12:55:11.227Z,9.90
2018-12-31T12:57:38.653Z,10.10
2018-12-31T13:00:06.510Z,10.20
2018-12-31T13:02:33.948Z,10.10
2018-12-31T13:05:03.898Z,10.00
2018-12-31T13:07:30.647Z,10.00
2018-12-31T13:09:58.463Z,10.10
2018-12-31T13:12:25.894Z,9.90
2018-12-31T13:14:53.783Z,10.00
2018-12-31T13:17:21.279Z,10.20
2018-12-31T13:19:48.749Z,9.80
2018-12-31T13:22:16.636Z,9.90
2018-12-31T13:24:44.088Z,9.90
2018-12-31T13:27:11.583Z,10.00
2018-12-31T13:29:39.069Z,10.10
2018-12-31T13:32:06.516Z,9.70
2018-12-31T13:34:34.004Z,9.70
2018-12-31T13:37:01.453Z,10.00
2018-12-31T13:39:28.950Z,10.20
2018-12-31T13:41:56.368Z,10.40
2018-12-31T13:44:24.130Z,10.60
2018-12-31T13:46:51.596Z,10.60
2018-12-31T13:49:19.765Z,10.60
2018-12-31T13:51:47.549Z,10.70
2018-12-31T13:54:14.957Z,10.70
2018-12-31T13:56:42.719Z,10.60
2018-12-31T13:59:10.119Z,10.50
2018-12-31T14:01:37.563Z,10.40
2018-12-31T14:04:05.009Z,10.50
2018-12-31T14:06:32.414Z,10.50
2018-12-31T14:08:59.858Z,10.60
2018-12-31T14:11:27.291Z,10.60
2018-12-31T14:13:55.016Z,10.60
2018-12-31T14:16:22.995Z,10.60
2018-12-31T14:18:50.451Z,10.30
2018-12-31T14:21:17.937Z,10.30
2018-12-31T14:23:45.470Z,10.50
2018-12-31T14:26:13.195Z,10.60
2018-12-31T14:28:40.679Z,10.50
2018-12-31T14:31:08.079Z,10.50
2018-12-31T14:33:35.505Z,10.40
2018-12-31T14:36:02.954Z,10.60
2018-12-31T14:38:30.352Z,10.60
2018-12-31T14:40:57.867Z,10.70
2018-12-31T14:43:25.332Z,10.60
2018-12-31T14:45:52.804Z,10.60
2018-12-31T14:48:20.541Z,10.70
2018-12-31T14:50:48.037Z,10.70
2018-12-31T14:53:15.875Z,10.80
2018-12-31T14:55:43.346Z,10.80
2018-12-31T14:58:12.946Z,11.00
2018-12-31T15:00:40.741Z,11.00
2018-12-31T15:03:08.171Z,10.90
2018-12-31T15:05:35.920Z,10.90
2018-12-31T15:08:03.406Z,10.90
2018-12-31T15:10:30.987Z,10.80
2018-12-31T15:12:58.408Z,10.90
2018-12-31T15:15:25.897Z,10.80
2018-12-31T15:17:53.649Z,10.90
2018-12-31T15:20:21.119Z,11.00
2018-12-31T15:22:48.552Z,11.00
2018-12-31T15:25:16.062Z,11.00
2018-12-31T15:27:43.531Z,10.90
2018-12-31T15:30:10.899Z,10.90
2018-12-31T15:32:38.374Z,10.90
2018-12-31T15:35:06.527Z,10.90
2018-12-31T15:37:33.978Z,10.90
2018-12-31T15:40:01.463Z,11.00
2018-12-31T15:42:29.002Z,11.00
2018-12-31T15:44:56.423Z,10.90
2018-12-31T15:47:23.913Z,10.90
2018-12-31T15:49:51.397Z,10.90
2018-12-31T15:52:19.539Z,10.80
2018-12-31T15:54:47.041Z,10.70
2018-12-31T15:57:14.534Z,10.90
2018-12-31T15:59:41.944Z,10.90
2018-12-31T16:02:09.400Z,10.90
2018-12-31T16:04:36.885Z,11.00
2018-12-31T16:07:04.638Z,10.90
2018-12-31T16:09:32.125Z,10.90
2018-12-31T16:11:59.612Z,10.80
2018-12-31T16:14:27.098Z,10.90
2018-12-31T16:16:54.519Z,10.90
2018-12-31T16:19:21.958Z,10.90
2018-12-31T16:21:49.458Z,10.80
2018-12-31T16:24:16.911Z,10.80
2018-12-31T16:26:44.353Z,10.80
2018-12-31T16:29:11.877Z,10.80
2018-12-31T16:31:39.375Z,10.80
2018-12-31T16:34:06.824Z,10.80
2018-12-31T16:36:34.221Z,10.80
2018-12-31T16:39:01.737Z,10.80
2018-12-31T16:41:29.240Z,10.70
2018-12-31T16:43:56.711Z,10.80
2018-12-31T16:46:24.143Z,10.80
2018-12-31T16:48:51.975Z,10.80
2018-12-31T16:51:19.730Z,10.80
2018-12-31T16:53:47.150Z,10.80
2018-12-31T16:56:14.573Z,10.80
2018-12-31T16:58:41.990Z,10.80
2018-12-31T17:01:09.730Z,10.80
2018-12-31T17:03:37.036Z,10.70
2018-12-31T17:06:04.882Z,10.70
2018-12-31T17:08:32.320Z,10.70
2018-12-31T17:10:59.721Z,10.50
2018-12-31T17:13:27.119Z,10.50
2018-12-31T17:15:54.544Z,10.40
2018-12-31T17:18:21.968Z,10.40
2018-12-31T17:20:49.403Z,10.40
2018-12-31T17:23:16.790Z,10.50
2018-12-31T17:25:44.232Z,10.60
2018-12-31T17:28:11.673Z,10.50
2018-12-31T17:30:39.095Z,10.50
2018-12-31T17:33:06.501Z,10.60
2018-12-31T17:35:33.921Z,10.70
2018-12-31T17:38:01.308Z,10.70
2018-12-31T17:40:28.726Z,10.70
2018-12-31T17:42:56.172Z,10.80
2018-12-31T17:45:23.967Z,10.70
2018-12-31T17:47:51.370Z,10.70
2018-12-31T17:50:19.635Z,10.50
2018-12-31T17:52:47.079Z,10.60
2018-12-31T17:55:14.855Z,10.50
2018-12-31T17:57:42.304Z,10.50
2018-12-31T18:00:10.043Z,10.40
2018-12-31T18:02:37.443Z,10.40
2018-12-31T18:05:04.890Z,10.40
2018-12-31T18:07:32.620Z,10.50
2018-12-31T18:09:59.935Z,10.50
2018-12-31T18:12:27.354Z,10.50
2018-12-31T18:14:54.719Z,10.60
2018-12-31T18:17:22.150Z,10.60
2018-12-31T18:19:49.563Z,10.60
2018-12-31T18:22:17.023Z,10.60
2018-12-31T18:24:44.744Z,10.60
2018-12-31T18:27:12.461Z,10.60
2018-12-31T18:29:39.921Z,10.60
2018-12-31T18:32:07.404Z,10.50
2018-12-31T18:34:34.850Z,10.50
2018-12-31T18:37:02.239Z,10.50
2018-12-31T18:39:29.711Z,10.50
2018-12-31T18:41:57.423Z,10.50
2018-12-31T18:44:24.874Z,10.60
2018-12-31T18:46:52.239Z,10.50
2018-12-31T18:49:19.660Z,10.50
2018-12-31T18:51:48.972Z,10.40
2018-12-31T18:54:16.313Z,10.30
2018-12-31T18:56:43.736Z,10.40
2018-12-31T18:59:11.159Z,10.40
2018-12-31T19:01:38.646Z,10.40
2018-12-31T19:04:06.055Z,10.20
2018-12-31T19:06:33.501Z,10.30
2018-12-31T19:09:01.192Z,10.40
2018-12-31T19:11:28.630Z,10.40
2018-12-31T19:13:56.360Z,10.30
2018-12-31T19:16:24.072Z,10.40
2018-12-31T19:18:51.558Z,10.30
2018-12-31T19:21:18.930Z,10.30
2018-12-31T19:23:46.385Z,10.20
2018-12-31T19:26:13.781Z,10.10
2018-12-31T19:28:41.222Z,10.00
2018-12-31T19:31:08.627Z,9.90
2018-12-31T19:33:36.605Z,9.90
2018-12-31T19:36:04.055Z,10.20
2018-12-31T19:38:32.262Z,10.10
2018-12-31T19:40:59.642Z,10.10
2018-12-31T19:43:27.072Z,10.20
2018-12-31T19:45:54.798Z,10.20
2018-12-31T19:48:22.213Z,10.30
2018-12-31T19:50:49.679Z,10.00
2018-12-31T19:53:17.326Z,9.80
2018-12-31T19:55:44.728Z,9.90
2018-12-31T19:58:12.130Z,9.90
2018-12-31T20:00:39.540Z,10.00
2018-12-31T20:03:06.925Z,10.00
2018-12-31T20:05:34.248Z,10.00
2018-12-31T20:08:01.722Z,10.00
2018-12-31T20:10:29.161Z,10.10
2018-12-31T20:12:56.546Z,10.10
2018-12-31T20:15:23.952Z,10.00
2018-12-31T20:17:51.279Z,9.90
2018-12-31T20:20:18.711Z,9.60
2018-12-31T20:22:46.090Z,9.50
2018-12-31T20:25:13.525Z,9.60
2018-12-31T20:27:41.265Z,9.80
2018-12-31T20:30:08.668Z,9.90
2018-12-31T20:32:36.102Z,9.80
2018-12-31T20:35:03.513Z,9.90
2018-12-31T20:37:31.237Z,10.00
2018-12-31T20:39:58.921Z,9.90
2018-12-31T20:42:26.327Z,9.60
2018-12-31T20:44:53.746Z,9.50
2018-12-31T20:47:21.177Z,9.70
2018-12-31T20:49:48.679Z,9.80
2018-12-31T20:52:16.081Z,9.90
2018-12-31T20:54:43.505Z,9.70
2018-12-31T20:57:10.955Z,9.70
2018-12-31T20:59:38.398Z,9.70
2018-12-31T21:02:05.816Z,9.50
2018-12-31T21:04:33.262Z,9.40
2018-12-31T21:07:00.727Z,9.60
2018-12-31T21:09:28.972Z,9.80
2018-12-31T21:11:56.862Z,9.70
2018-12-31T21:14:24.264Z,9.70
2018-12-31T21:16:51.666Z,9.90
2018-12-31T21:19:19.110Z,10.00
2018-12-31T21:21:46.834Z,9.80
2018-12-31T21:24:14.282Z,9.70
2018-12-31T21:26:41.705Z,9.70
2018-12-31T21:29:09.154Z,9.90
2018-12-31T21:31:36.556Z,9.80
2018-12-31T21:34:04.052Z,9.60
2018-12-31T21:36:31.978Z,9.70
2018-12-31T21:38:59.461Z,9.70
2018-12-31T21:41:26.869Z,9.70
2018-12-31T21:43:54.332Z,9.60
2018-12-31T21:46:21.781Z,9.60
2018-12-31T21:48:49.202Z,9.30
2018-12-31T21:51:17.128Z,9.30
2018-12-31T21:53:44.594Z,9.40
2018-12-31T21:56:12.023Z,9.20
2018-12-31T21:58:39.456Z,9.30
2018-12-31T22:01:06.897Z,9.30
2018-12-31T22:03:34.318Z,9.00
2018-12-31T22:06:02.341Z,8.80
2018-12-31T22:08:29.758Z,9.10
2018-12-31T22:10:57.161Z,9.10
2018-12-31T22:13:24.571Z,9.40
2018-12-31T22:15:51.995Z,9.50
2018-12-31T22:18:19.440Z,9.30
2018-12-31T22:20:47.223Z,9.50
2018-12-31T22:23:14.638Z,9.60
2018-12-31T22:25:42.070Z,9.70
2018-12-31T22:28:09.484Z,9.80
2018-12-31T22:30:36.867Z,9.90
2018-12-31T22:33:04.253Z,9.90
2018-12-31T22:35:31.754Z,9.70
2018-12-31T22:37:59.161Z,9.60
2018-12-31T22:40:26.877Z,9.40
2018-12-31T22:42:54.259Z,9.40
2018-12-31T22:45:21.665Z,9.40
2018-12-31T22:47:49.103Z,9.40
2018-12-31T22:50:16.520Z,9.50
2018-12-31T22:52:43.806Z,9.50
2018-12-31T22:55:11.214Z,9.50
2018-12-31T22:57:39.202Z,9.60
2018-12-31T23:00:08.423Z,9.60
2018-12-31T23:02:36.210Z,9.50
2018-12-31T23:05:04.932Z,9.50
2018-12-31T23:07:32.359Z,9.40
2018-12-31T23:09:59.796Z,9.40
2018-12-31T23:12:27.213Z,9.50
2018-12-31T23:14:55.702Z,9.40
2018-12-31T23:17:23.111Z,9.70
2018-12-31T23:19:50.565Z,9.80
2018-12-31T23:22:17.994Z,9.70
2018-12-31T23:24:45.476Z,9.60
2018-12-31T23:27:12.911Z,9.70
2018-12-31T23:29:40.670Z,9.70
2018-12-31T23:32:08.222Z,9.80
2018-12-31T23:34:36.117Z,9.90
2018-12-31T23:37:03.682Z,9.90
2018-12-31T23:39:31.144Z,9.70
2018-12-31T23:41:58.601Z,9.60
2018-12-31T23:44:26.125Z,9.70
2018-12-31T23:46:53.534Z,9.70
2018-12-31T23:49:20.994Z,9.70
2018-12-31T23:51:48.444Z,9.70
2018-12-31T23:54:15.882Z,9.70
2018-12-31T23:56:43.303Z,9.80
2018-12-31T23:59:11.173Z,9.80
